sensor_id;sensor_type;location;lat;lon;timestamp;pressure;altitude;pressure_sealevel;temperature
72405;BMP280;60395;52.020;113.548;2023-04-25T00:02:53;92799.19;;;17.29
72405;BMP280;60395;52.020;113.548;2023-04-25T00:05:59;92791.28;;;17.43
72405;BMP280;60395;52.020;113.548;2023-04-25T00:09:06;92787.03;;;17.34
72405;BMP280;60395;52.020;113.548;2023-04-25T00:12:13;92783.97;;;17.58
72405;BMP280;60395;52.020;113.548;2023-04-25T00:15:18;92779.91;;;17.91
72405;BMP280;60395;52.020;113.548;2023-04-25T00:18:21;92774.31;;;18.11
72405;BMP280;60395;52.020;113.548;2023-04-25T00:21:25;92772.09;;;18.16
72405;BMP280;60395;52.020;113.548;2023-04-25T00:24:28;92764.13;;;17.72
72405;BMP280;60395;52.020;113.548;2023-04-25T00:27:31;92767.25;;;17.31
72405;BMP280;60395;52.020;113.548;2023-04-25T00:30:35;92757.53;;;16.77
72405;BMP280;60395;52.020;113.548;2023-04-25T00:33:38;92758.41;;;16.03
72405;BMP280;60395;52.020;113.548;2023-04-25T00:36:41;92760.81;;;15.55
72405;BMP280;60395;52.020;113.548;2023-04-25T00:39:44;92753.44;;;14.38
72405;BMP280;60395;52.020;113.548;2023-04-25T00:42:48;92748.28;;;12.63
72405;BMP280;60395;52.020;113.548;2023-04-25T00:45:52;92742.91;;;11.44
72405;BMP280;60395;52.020;113.548;2023-04-25T00:48:56;92742.22;;;10.71
72405;BMP280;60395;52.020;113.548;2023-04-25T00:51:59;92742.91;;;10.23
72405;BMP280;60395;52.020;113.548;2023-04-25T00:55:03;92737.28;;;10.02
72405;BMP280;60395;52.020;113.548;2023-04-25T00:58:07;92726.41;;;9.82
72405;BMP280;60395;52.020;113.548;2023-04-25T01:01:10;92728.19;;;9.42
72405;BMP280;60395;52.020;113.548;2023-04-25T01:04:14;92722.66;;;9.03
72405;BMP280;60395;52.020;113.548;2023-04-25T01:07:18;92715.66;;;8.82
72405;BMP280;60395;52.020;113.548;2023-04-25T01:10:22;92714.50;;;8.66
72405;BMP280;60395;52.020;113.548;2023-04-25T01:13:25;92707.47;;;8.41
72405;BMP280;60395;52.020;113.548;2023-04-25T01:16:29;92699.03;;;8.32
72405;BMP280;60395;52.020;113.548;2023-04-25T01:19:32;92697.09;;;8.31
72405;BMP280;60395;52.020;113.548;2023-04-25T01:22:35;92693.22;;;8.26
72405;BMP280;60395;52.020;113.548;2023-04-25T01:25:39;92679.50;;;8.19
72405;BMP280;60395;52.020;113.548;2023-04-25T01:28:43;92678.22;;;8.16
72405;BMP280;60395;52.020;113.548;2023-04-25T01:31:47;92673.72;;;8.06
72405;BMP280;60395;52.020;113.548;2023-04-25T01:34:50;92656.13;;;7.97
72405;BMP280;60395;52.020;113.548;2023-04-25T01:37:54;92649.59;;;7.96
72405;BMP280;60395;52.020;113.548;2023-04-25T01:40:57;92650.16;;;8.06
72405;BMP280;60395;52.020;113.548;2023-04-25T01:44:02;92631.75;;;8.20
72405;BMP280;60395;52.020;113.548;2023-04-25T01:47:05;92627.66;;;8.42
72405;BMP280;60395;52.020;113.548;2023-04-25T01:50:10;92623.59;;;8.57
72405;BMP280;60395;52.020;113.548;2023-04-25T01:53:14;92618.94;;;8.65
72405;BMP280;60395;52.020;113.548;2023-04-25T01:56:19;92610.94;;;8.80
72405;BMP280;60395;52.020;113.548;2023-04-25T01:59:23;92605.50;;;8.98
72405;BMP280;60395;52.020;113.548;2023-04-25T02:02:49;92602.66;;;9.18
72405;BMP280;60395;52.020;113.548;2023-04-25T02:06:06;92588.81;;;9.26
72405;BMP280;60395;52.020;113.548;2023-04-25T02:09:13;92590.06;;;9.31
72405;BMP280;60395;52.020;113.548;2023-04-25T02:12:21;92589.91;;;9.43
72405;BMP280;60395;52.020;113.548;2023-04-25T02:15:45;92582.50;;;9.55
72405;BMP280;60395;52.020;113.548;2023-04-25T02:18:49;92579.44;;;9.88
72405;BMP280;60395;52.020;113.548;2023-04-25T02:21:55;92571.47;;;9.96
72405;BMP280;60395;52.020;113.548;2023-04-25T02:24:59;92563.84;;;9.78
72405;BMP280;60395;52.020;113.548;2023-04-25T02:28:03;92550.78;;;9.73
72405;BMP280;60395;52.020;113.548;2023-04-25T02:31:06;92548.75;;;9.80
72405;BMP280;60395;52.020;113.548;2023-04-25T02:34:09;92539.34;;;9.93
72405;BMP280;60395;52.020;113.548;2023-04-25T02:37:13;92541.25;;;9.97
72405;BMP280;60395;52.020;113.548;2023-04-25T02:40:19;92538.72;;;9.91
72405;BMP280;60395;52.020;113.548;2023-04-25T02:43:25;92529.50;;;9.94
72405;BMP280;60395;52.020;113.548;2023-04-25T02:46:28;92515.91;;;10.22
72405;BMP280;60395;52.020;113.548;2023-04-25T02:49:40;92514.13;;;10.47
72405;BMP280;60395;52.020;113.548;2023-04-25T02:52:44;92500.97;;;10.49
72405;BMP280;60395;52.020;113.548;2023-04-25T02:55:56;92498.38;;;10.47
72405;BMP280;60395;52.020;113.548;2023-04-25T02:59:01;92489.38;;;10.36
72405;BMP280;60395;52.020;113.548;2023-04-25T03:02:06;92479.59;;;10.33
72405;BMP280;60395;52.020;113.548;2023-04-25T03:05:09;92484.31;;;10.28
72405;BMP280;60395;52.020;113.548;2023-04-25T03:08:13;92474.28;;;10.39
72405;BMP280;60395;52.020;113.548;2023-04-25T03:11:17;92473.78;;;10.63
72405;BMP280;60395;52.020;113.548;2023-04-25T03:14:23;92468.94;;;10.75
72405;BMP280;60395;52.020;113.548;2023-04-25T03:17:26;92456.88;;;10.87
72405;BMP280;60395;52.020;113.548;2023-04-25T03:20:30;92465.38;;;10.89
72405;BMP280;60395;52.020;113.548;2023-04-25T03:23:33;92450.81;;;10.94
72405;BMP280;60395;52.020;113.548;2023-04-25T03:26:36;92445.38;;;11.02
72405;BMP280;60395;52.020;113.548;2023-04-25T03:29:39;92432.53;;;11.19
72405;BMP280;60395;52.020;113.548;2023-04-25T03:32:44;92420.63;;;10.93
72405;BMP280;60395;52.020;113.548;2023-04-25T03:35:51;92416.78;;;10.88
72405;BMP280;60395;52.020;113.548;2023-04-25T03:38:55;92400.00;;;11.04
72405;BMP280;60395;52.020;113.548;2023-04-25T03:41:58;92398.38;;;11.19
72405;BMP280;60395;52.020;113.548;2023-04-25T03:45:03;92394.00;;;11.36
72405;BMP280;60395;52.020;113.548;2023-04-25T03:48:08;92391.75;;;11.49
72405;BMP280;60395;52.020;113.548;2023-04-25T03:51:12;92382.84;;;11.62
72405;BMP280;60395;52.020;113.548;2023-04-25T03:54:18;92374.63;;;11.74
72405;BMP280;60395;52.020;113.548;2023-04-25T03:57:29;92369.66;;;11.89
72405;BMP280;60395;52.020;113.548;2023-04-25T04:00:33;92364.13;;;11.99
72405;BMP280;60395;52.020;113.548;2023-04-25T04:03:36;92357.88;;;12.11
72405;BMP280;60395;52.020;113.548;2023-04-25T04:06:40;92356.66;;;12.30
72405;BMP280;60395;52.020;113.548;2023-04-25T04:09:50;92344.63;;;12.37
72405;BMP280;60395;52.020;113.548;2023-04-25T04:12:59;92324.22;;;12.36
72405;BMP280;60395;52.020;113.548;2023-04-25T04:16:03;92323.47;;;12.39
72405;BMP280;60395;52.020;113.548;2023-04-25T04:19:07;92317.34;;;12.47
72405;BMP280;60395;52.020;113.548;2023-04-25T04:22:12;92305.63;;;12.42
72405;BMP280;60395;52.020;113.548;2023-04-25T04:25:16;92299.84;;;11.92
72405;BMP280;60395;52.020;113.548;2023-04-25T04:28:58;92291.13;;;11.73
72405;BMP280;60395;52.020;113.548;2023-04-25T04:32:24;92287.25;;;11.95
72405;BMP280;60395;52.020;113.548;2023-04-25T04:35:29;92280.72;;;11.94
72405;BMP280;60395;52.020;113.548;2023-04-25T04:38:33;92272.84;;;11.69
72405;BMP280;60395;52.020;113.548;2023-04-25T04:41:38;92261.75;;;11.66
72405;BMP280;60395;52.020;113.548;2023-04-25T04:44:45;92261.50;;;11.74
72405;BMP280;60395;52.020;113.548;2023-04-25T04:47:59;92250.13;;;12.05
72405;BMP280;60395;52.020;113.548;2023-04-25T04:51:27;92230.81;;;12.35
72405;BMP280;60395;52.020;113.548;2023-04-25T04:54:48;92218.84;;;12.38
72405;BMP280;60395;52.020;113.548;2023-04-25T04:58:19;92209.63;;;12.60
72405;BMP280;60395;52.020;113.548;2023-04-25T05:01:37;92200.66;;;12.71
72405;BMP280;60395;52.020;113.548;2023-04-25T05:05:13;92192.97;;;12.84
72405;BMP280;60395;52.020;113.548;2023-04-25T05:08:51;92185.47;;;12.92
72405;BMP280;60395;52.020;113.548;2023-04-25T05:12:07;92173.63;;;12.91
72405;BMP280;60395;52.020;113.548;2023-04-25T05:15:26;92175.28;;;13.01
72405;BMP280;60395;52.020;113.548;2023-04-25T05:18:59;92178.28;;;13.10
72405;BMP280;60395;52.020;113.548;2023-04-25T05:22:17;92173.72;;;13.27
72405;BMP280;60395;52.020;113.548;2023-04-25T05:25:34;92165.59;;;13.33
72405;BMP280;60395;52.020;113.548;2023-04-25T05:28:44;92158.34;;;13.33
72405;BMP280;60395;52.020;113.548;2023-04-25T05:32:08;92140.81;;;13.26
72405;BMP280;60395;52.020;113.548;2023-04-25T05:35:12;92125.34;;;13.34
72405;BMP280;60395;52.020;113.548;2023-04-25T05:38:20;92111.28;;;13.40
72405;BMP280;60395;52.020;113.548;2023-04-25T05:42:03;92106.97;;;13.49
72405;BMP280;60395;52.020;113.548;2023-04-25T05:45:35;92088.63;;;13.64
72405;BMP280;60395;52.020;113.548;2023-04-25T05:48:39;92085.19;;;13.67
72405;BMP280;60395;52.020;113.548;2023-04-25T05:52:02;92073.19;;;13.54
72405;BMP280;60395;52.020;113.548;2023-04-25T05:55:41;92059.22;;;13.22
72405;BMP280;60395;52.020;113.548;2023-04-25T05:58:56;92054.47;;;13.08
72405;BMP280;60395;52.020;113.548;2023-04-25T06:02:00;92043.59;;;13.16
72405;BMP280;60395;52.020;113.548;2023-04-25T06:05:07;92038.22;;;13.36
72405;BMP280;60395;52.020;113.548;2023-04-25T06:08:11;92030.13;;;13.59
72405;BMP280;60395;52.020;113.548;2023-04-25T06:11:14;92026.19;;;13.75
72405;BMP280;60395;52.020;113.548;2023-04-25T06:14:17;92023.63;;;13.89
72405;BMP280;60395;52.020;113.548;2023-04-25T06:17:25;92004.03;;;13.84
72405;BMP280;60395;52.020;113.548;2023-04-25T06:20:28;91992.91;;;13.82
72405;BMP280;60395;52.020;113.548;2023-04-25T06:23:34;91985.72;;;13.80
72405;BMP280;60395;52.020;113.548;2023-04-25T06:26:40;91984.50;;;13.77
72405;BMP280;60395;52.020;113.548;2023-04-25T06:29:44;91989.31;;;13.39
72405;BMP280;60395;52.020;113.548;2023-04-25T06:32:48;91966.97;;;13.03
72405;BMP280;60395;52.020;113.548;2023-04-25T06:35:52;91954.34;;;12.70
72405;BMP280;60395;52.020;113.548;2023-04-25T06:38:59;91948.25;;;12.57
72405;BMP280;60395;52.020;113.548;2023-04-25T06:42:03;91941.16;;;12.89
72405;BMP280;60395;52.020;113.548;2023-04-25T06:45:30;91944.63;;;13.19
72405;BMP280;60395;52.020;113.548;2023-04-25T06:48:34;91943.09;;;13.24
72405;BMP280;60395;52.020;113.548;2023-04-25T06:51:40;91926.34;;;13.31
72405;BMP280;60395;52.020;113.548;2023-04-25T06:54:44;91920.50;;;13.29
72405;BMP280;60395;52.020;113.548;2023-04-25T06:58:09;91907.13;;;13.16
72405;BMP280;60395;52.020;113.548;2023-04-25T07:01:31;91892.38;;;13.07
72405;BMP280;60395;52.020;113.548;2023-04-25T07:04:38;91888.34;;;12.74
72405;BMP280;60395;52.020;113.548;2023-04-25T07:07:44;91890.66;;;12.66
72405;BMP280;60395;52.020;113.548;2023-04-25T07:10:47;91881.88;;;12.71
72405;BMP280;60395;52.020;113.548;2023-04-25T07:13:51;91879.16;;;12.73
72405;BMP280;60395;52.020;113.548;2023-04-25T07:16:54;91873.19;;;12.56
72405;BMP280;60395;52.020;113.548;2023-04-25T07:20:01;91859.34;;;12.04
72405;BMP280;60395;52.020;113.548;2023-04-25T07:23:06;91856.28;;;11.78
72405;BMP280;60395;52.020;113.548;2023-04-25T07:26:10;91846.09;;;11.68
72405;BMP280;60395;52.020;113.548;2023-04-25T07:29:28;91841.41;;;11.90
72405;BMP280;60395;52.020;113.548;2023-04-25T07:32:34;91839.16;;;11.98
72405;BMP280;60395;52.020;113.548;2023-04-25T07:35:38;91829.75;;;11.84
72405;BMP280;60395;52.020;113.548;2023-04-25T07:38:41;91826.72;;;11.78
72405;BMP280;60395;52.020;113.548;2023-04-25T07:41:45;91822.66;;;12.00
72405;BMP280;60395;52.020;113.548;2023-04-25T07:44:54;91822.56;;;12.20
72405;BMP280;60395;52.020;113.548;2023-04-25T07:47:57;91811.50;;;11.99
72405;BMP280;60395;52.020;113.548;2023-04-25T07:51:04;91799.59;;;11.81
72405;BMP280;60395;52.020;113.548;2023-04-25T07:54:13;91792.41;;;11.80
72405;BMP280;60395;52.020;113.548;2023-04-25T07:57:21;91793.81;;;11.96
72405;BMP280;60395;52.020;113.548;2023-04-25T08:00:28;91784.16;;;11.90
72405;BMP280;60395;52.020;113.548;2023-04-25T08:03:51;91778.75;;;12.13
72405;BMP280;60395;52.020;113.548;2023-04-25T08:06:59;91770.16;;;12.31
72405;BMP280;60395;52.020;113.548;2023-04-25T08:10:07;91758.69;;;12.38
72405;BMP280;60395;52.020;113.548;2023-04-25T08:13:11;91753.97;;;12.58
72405;BMP280;60395;52.020;113.548;2023-04-25T08:16:15;91750.94;;;12.51
72405;BMP280;60395;52.020;113.548;2023-04-25T08:19:19;91738.59;;;12.64
72405;BMP280;60395;52.020;113.548;2023-04-25T08:22:22;91729.97;;;12.82
72405;BMP280;60395;52.020;113.548;2023-04-25T08:25:33;91726.34;;;12.73
72405;BMP280;60395;52.020;113.548;2023-04-25T08:28:37;91725.81;;;12.54
72405;BMP280;60395;52.020;113.548;2023-04-25T08:31:40;91718.94;;;12.61
72405;BMP280;60395;52.020;113.548;2023-04-25T08:34:44;91719.06;;;12.90
72405;BMP280;60395;52.020;113.548;2023-04-25T08:37:48;91715.25;;;13.19
72405;BMP280;60395;52.020;113.548;2023-04-25T08:40:54;91712.63;;;13.19
72405;BMP280;60395;52.020;113.548;2023-04-25T08:43:59;91704.47;;;13.25
72405;BMP280;60395;52.020;113.548;2023-04-25T08:47:04;91703.63;;;13.14
72405;BMP280;60395;52.020;113.548;2023-04-25T08:50:17;91702.94;;;12.99
72405;BMP280;60395;52.020;113.548;2023-04-25T08:53:27;91690.75;;;12.74
72405;BMP280;60395;52.020;113.548;2023-04-25T08:56:34;91691.00;;;12.52
72405;BMP280;60395;52.020;113.548;2023-04-25T08:59:39;91692.69;;;12.43
72405;BMP280;60395;52.020;113.548;2023-04-25T09:02:43;91678.56;;;12.33
72405;BMP280;60395;52.020;113.548;2023-04-25T09:05:47;91676.59;;;12.34
72405;BMP280;60395;52.020;113.548;2023-04-25T09:08:50;91675.00;;;12.41
72405;BMP280;60395;52.020;113.548;2023-04-25T09:11:54;91670.09;;;12.64
72405;BMP280;60395;52.020;113.548;2023-04-25T09:18:29;91657.97;;;13.17
72405;BMP280;60395;52.020;113.548;2023-04-25T09:21:34;91658.50;;;13.05
72405;BMP280;60395;52.020;113.548;2023-04-25T09:24:43;91651.38;;;12.87
72405;BMP280;60395;52.020;113.548;2023-04-25T09:27:53;91654.78;;;12.69
72405;BMP280;60395;52.020;113.548;2023-04-25T09:31:01;91649.34;;;12.56
72405;BMP280;60395;52.020;113.548;2023-04-25T09:34:17;91651.97;;;12.56
72405;BMP280;60395;52.020;113.548;2023-04-25T09:37:29;91641.81;;;12.63
72405;BMP280;60395;52.020;113.548;2023-04-25T09:40:51;91648.13;;;12.70
72405;BMP280;60395;52.020;113.548;2023-04-25T09:44:07;91645.34;;;12.74
72405;BMP280;60395;52.020;113.548;2023-04-25T09:47:13;91645.97;;;12.74
72405;BMP280;60395;52.020;113.548;2023-04-25T09:50:18;91639.03;;;12.67
72405;BMP280;60395;52.020;113.548;2023-04-25T09:53:27;91624.53;;;12.51
72405;BMP280;60395;52.020;113.548;2023-04-25T09:56:43;91625.53;;;12.27
72405;BMP280;60395;52.020;113.548;2023-04-25T09:59:55;91627.03;;;12.22
72405;BMP280;60395;52.020;113.548;2023-04-25T10:03:05;91617.88;;;12.21
72405;BMP280;60395;52.020;113.548;2023-04-25T10:06:38;91615.88;;;12.21
72405;BMP280;60395;52.020;113.548;2023-04-25T10:09:47;91616.88;;;12.28
72405;BMP280;60395;52.020;113.548;2023-04-25T10:12:51;91619.75;;;12.39
72405;BMP280;60395;52.020;113.548;2023-04-25T10:15:55;91609.63;;;12.46
72405;BMP280;60395;52.020;113.548;2023-04-25T10:19:01;91617.06;;;12.41
72405;BMP280;60395;52.020;113.548;2023-04-25T10:22:23;91612.66;;;12.35
72405;BMP280;60395;52.020;113.548;2023-04-25T10:25:29;91613.72;;;12.26
72405;BMP280;60395;52.020;113.548;2023-04-25T10:28:55;91608.63;;;12.22
72405;BMP280;60395;52.020;113.548;2023-04-25T10:32:02;91595.78;;;12.14
72405;BMP280;60395;52.020;113.548;2023-04-25T10:38:18;91587.25;;;11.97
72405;BMP280;60395;52.020;113.548;2023-04-25T10:41:22;91582.06;;;11.95
72405;BMP280;60395;52.020;113.548;2023-04-25T10:44:31;91576.91;;;11.93
72405;BMP280;60395;52.020;113.548;2023-04-25T10:47:35;91591.66;;;11.86
72405;BMP280;60395;52.020;113.548;2023-04-25T10:50:39;91577.69;;;11.72
72405;BMP280;60395;52.020;113.548;2023-04-25T10:53:47;91585.47;;;11.58
72405;BMP280;60395;52.020;113.548;2023-04-25T10:56:59;91578.91;;;11.40
72405;BMP280;60395;52.020;113.548;2023-04-25T11:03:16;91579.88;;;11.14
72405;BMP280;60395;52.020;113.548;2023-04-25T11:09:30;91560.88;;;10.95
72405;BMP280;60395;52.020;113.548;2023-04-25T11:12:33;91575.63;;;10.86
72405;BMP280;60395;52.020;113.548;2023-04-25T11:15:37;91560.91;;;10.74
72405;BMP280;60395;52.020;113.548;2023-04-25T11:18:44;91561.16;;;10.68
72405;BMP280;60395;52.020;113.548;2023-04-25T11:21:47;91556.97;;;10.56
72405;BMP280;60395;52.020;113.548;2023-04-25T11:24:51;91564.56;;;10.46
72405;BMP280;60395;52.020;113.548;2023-04-25T11:27:57;91572.00;;;10.39
72405;BMP280;60395;52.020;113.548;2023-04-25T11:31:02;91558.47;;;10.31
72405;BMP280;60395;52.020;113.548;2023-04-25T11:34:07;91557.41;;;10.23
72405;BMP280;60395;52.020;113.548;2023-04-25T11:37:10;91563.38;;;10.22
72405;BMP280;60395;52.020;113.548;2023-04-25T11:40:15;91567.47;;;10.17
72405;BMP280;60395;52.020;113.548;2023-04-25T11:43:22;91568.34;;;10.09
72405;BMP280;60395;52.020;113.548;2023-04-25T11:46:25;91569.31;;;10.00
72405;BMP280;60395;52.020;113.548;2023-04-25T11:49:32;91568.31;;;9.91
72405;BMP280;60395;52.020;113.548;2023-04-25T11:52:46;91577.94;;;9.76
72405;BMP280;60395;52.020;113.548;2023-04-25T11:55:50;91570.44;;;9.63
72405;BMP280;60395;52.020;113.548;2023-04-25T11:58:58;91576.88;;;9.46
72405;BMP280;60395;52.020;113.548;2023-04-25T12:02:02;91575.94;;;9.33
72405;BMP280;60395;52.020;113.548;2023-04-25T12:05:12;91566.63;;;9.38
72405;BMP280;60395;52.020;113.548;2023-04-25T12:08:31;91567.41;;;9.34
72405;BMP280;60395;52.020;113.548;2023-04-25T12:11:47;91560.84;;;9.35
72405;BMP280;60395;52.020;113.548;2023-04-25T12:14:50;91549.22;;;9.28
72405;BMP280;60395;52.020;113.548;2023-04-25T12:17:54;91543.34;;;9.28
72405;BMP280;60395;52.020;113.548;2023-04-25T12:21:00;91544.69;;;9.27
72405;BMP280;60395;52.020;113.548;2023-04-25T12:24:32;91536.25;;;9.24
72405;BMP280;60395;52.020;113.548;2023-04-25T12:27:40;91540.91;;;9.21
72405;BMP280;60395;52.020;113.548;2023-04-25T12:31:03;91538.25;;;9.24
72405;BMP280;60395;52.020;113.548;2023-04-25T12:34:07;91542.53;;;9.10
72405;BMP280;60395;52.020;113.548;2023-04-25T12:37:10;91547.38;;;9.02
72405;BMP280;60395;52.020;113.548;2023-04-25T12:40:14;91550.16;;;8.96
72405;BMP280;60395;52.020;113.548;2023-04-25T12:43:17;91555.63;;;8.88
72405;BMP280;60395;52.020;113.548;2023-04-25T12:46:21;91552.47;;;8.83
72405;BMP280;60395;52.020;113.548;2023-04-25T12:49:26;91544.16;;;8.77
72405;BMP280;60395;52.020;113.548;2023-04-25T12:52:29;91544.38;;;8.68
72405;BMP280;60395;52.020;113.548;2023-04-25T12:55:32;91536.16;;;8.58
72405;BMP280;60395;52.020;113.548;2023-04-25T12:58:35;91539.59;;;8.50
72405;BMP280;60395;52.020;113.548;2023-04-25T13:01:39;91529.31;;;8.44
72405;BMP280;60395;52.020;113.548;2023-04-25T13:04:42;91535.81;;;8.45
72405;BMP280;60395;52.020;113.548;2023-04-25T13:07:45;91534.16;;;8.34
72405;BMP280;60395;52.020;113.548;2023-04-25T13:10:48;91527.91;;;8.23
72405;BMP280;60395;52.020;113.548;2023-04-25T13:13:52;91530.75;;;8.14
72405;BMP280;60395;52.020;113.548;2023-04-25T13:16:56;91515.25;;;8.06
72405;BMP280;60395;52.020;113.548;2023-04-25T13:19:59;91517.50;;;7.94
72405;BMP280;60395;52.020;113.548;2023-04-25T13:23:02;91523.63;;;7.84
72405;BMP280;60395;52.020;113.548;2023-04-25T13:26:06;91525.66;;;7.82
72405;BMP280;60395;52.020;113.548;2023-04-25T13:29:09;91526.34;;;7.80
72405;BMP280;60395;52.020;113.548;2023-04-25T13:32:12;91518.03;;;7.71
72405;BMP280;60395;52.020;113.548;2023-04-25T13:35:16;91521.59;;;7.60
72405;BMP280;60395;52.020;113.548;2023-04-25T13:38:21;91517.97;;;7.47
72405;BMP280;60395;52.020;113.548;2023-04-25T13:41:24;91518.25;;;7.33
72405;BMP280;60395;52.020;113.548;2023-04-25T13:44:28;91520.66;;;7.14
72405;BMP280;60395;52.020;113.548;2023-04-25T13:47:31;91512.97;;;7.06
72405;BMP280;60395;52.020;113.548;2023-04-25T13:50:34;91516.41;;;6.98
72405;BMP280;60395;52.020;113.548;2023-04-25T13:53:38;91521.06;;;6.94
72405;BMP280;60395;52.020;113.548;2023-04-25T13:56:42;91517.84;;;6.91
72405;BMP280;60395;52.020;113.548;2023-04-25T13:59:45;91528.53;;;6.79
72405;BMP280;60395;52.020;113.548;2023-04-25T14:02:49;91530.75;;;6.66
72405;BMP280;60395;52.020;113.548;2023-04-25T14:05:53;91521.13;;;6.57
72405;BMP280;60395;52.020;113.548;2023-04-25T14:08:56;91522.56;;;6.50
72405;BMP280;60395;52.020;113.548;2023-04-25T14:12:02;91525.34;;;6.42
72405;BMP280;60395;52.020;113.548;2023-04-25T14:15:06;91520.31;;;6.30
72405;BMP280;60395;52.020;113.548;2023-04-25T14:18:09;91527.00;;;6.20
72405;BMP280;60395;52.020;113.548;2023-04-25T14:21:13;91520.09;;;6.05
72405;BMP280;60395;52.020;113.548;2023-04-25T14:24:16;91523.00;;;5.87
72405;BMP280;60395;52.020;113.548;2023-04-25T14:27:20;91522.41;;;5.84
72405;BMP280;60395;52.020;113.548;2023-04-25T14:30:23;91520.53;;;5.78
72405;BMP280;60395;52.020;113.548;2023-04-25T14:33:27;91516.66;;;5.77
72405;BMP280;60395;52.020;113.548;2023-04-25T14:36:30;91510.22;;;5.72
72405;BMP280;60395;52.020;113.548;2023-04-25T14:39:34;91511.59;;;5.67
72405;BMP280;60395;52.020;113.548;2023-04-25T14:42:38;91501.88;;;5.64
72405;BMP280;60395;52.020;113.548;2023-04-25T14:45:41;91501.47;;;5.47
72405;BMP280;60395;52.020;113.548;2023-04-25T14:48:45;91497.88;;;5.26
72405;BMP280;60395;52.020;113.548;2023-04-25T14:51:48;91494.84;;;5.09
72405;BMP280;60395;52.020;113.548;2023-04-25T14:54:53;91482.50;;;5.10
72405;BMP280;60395;52.020;113.548;2023-04-25T14:57:56;91489.75;;;5.03
72405;BMP280;60395;52.020;113.548;2023-04-25T15:00:59;91483.38;;;4.92
72405;BMP280;60395;52.020;113.548;2023-04-25T15:04:03;91485.47;;;4.79
72405;BMP280;60395;52.020;113.548;2023-04-25T15:07:10;91490.88;;;4.65
72405;BMP280;60395;52.020;113.548;2023-04-25T15:10:13;91479.97;;;4.53
72405;BMP280;60395;52.020;113.548;2023-04-25T15:13:18;91489.81;;;4.44
72405;BMP280;60395;52.020;113.548;2023-04-25T15:16:22;91486.63;;;4.37
72405;BMP280;60395;52.020;113.548;2023-04-25T15:19:26;91482.13;;;4.34
72405;BMP280;60395;52.020;113.548;2023-04-25T15:22:29;91484.75;;;4.30
72405;BMP280;60395;52.020;113.548;2023-04-25T15:25:33;91484.16;;;4.25
72405;BMP280;60395;52.020;113.548;2023-04-25T15:28:36;91488.13;;;4.18
72405;BMP280;60395;52.020;113.548;2023-04-25T15:31:40;91473.91;;;4.13
72405;BMP280;60395;52.020;113.548;2023-04-25T15:34:43;91471.38;;;4.07
72405;BMP280;60395;52.020;113.548;2023-04-25T15:37:46;91479.84;;;4.00
72405;BMP280;60395;52.020;113.548;2023-04-25T15:40:51;91484.44;;;3.95
72405;BMP280;60395;52.020;113.548;2023-04-25T15:43:54;91486.41;;;3.94
72405;BMP280;60395;52.020;113.548;2023-04-25T15:46:58;91491.69;;;3.82
72405;BMP280;60395;52.020;113.548;2023-04-25T15:50:01;91489.19;;;3.74
72405;BMP280;60395;52.020;113.548;2023-04-25T15:53:06;91481.47;;;3.66
72405;BMP280;60395;52.020;113.548;2023-04-25T15:56:10;91482.78;;;3.59
72405;BMP280;60395;52.020;113.548;2023-04-25T15:59:13;91481.53;;;3.56
72405;BMP280;60395;52.020;113.548;2023-04-25T16:02:17;91478.97;;;3.52
72405;BMP280;60395;52.020;113.548;2023-04-25T16:05:20;91484.81;;;3.51
72405;BMP280;60395;52.020;113.548;2023-04-25T16:08:26;91476.38;;;3.48
72405;BMP280;60395;52.020;113.548;2023-04-25T16:11:31;91473.88;;;3.40
72405;BMP280;60395;52.020;113.548;2023-04-25T16:14:34;91479.09;;;3.34
72405;BMP280;60395;52.020;113.548;2023-04-25T16:17:37;91471.34;;;3.26
72405;BMP280;60395;52.020;113.548;2023-04-25T16:20:41;91476.63;;;3.16
72405;BMP280;60395;52.020;113.548;2023-04-25T16:23:44;91482.50;;;3.06
72405;BMP280;60395;52.020;113.548;2023-04-25T16:26:47;91482.53;;;2.98
72405;BMP280;60395;52.020;113.548;2023-04-25T16:29:50;91476.78;;;2.91
72405;BMP280;60395;52.020;113.548;2023-04-25T16:32:54;91473.56;;;2.85
72405;BMP280;60395;52.020;113.548;2023-04-25T16:35:58;91474.84;;;2.82
72405;BMP280;60395;52.020;113.548;2023-04-25T16:39:02;91482.03;;;2.71
72405;BMP280;60395;52.020;113.548;2023-04-25T16:42:08;91474.28;;;2.67
72405;BMP280;60395;52.020;113.548;2023-04-25T16:45:12;91481.47;;;2.58
72405;BMP280;60395;52.020;113.548;2023-04-25T16:48:15;91477.56;;;2.62
72405;BMP280;60395;52.020;113.548;2023-04-25T16:51:21;91481.50;;;2.46
72405;BMP280;60395;52.020;113.548;2023-04-25T16:54:24;91482.78;;;2.37
72405;BMP280;60395;52.020;113.548;2023-04-25T16:57:27;91486.69;;;2.36
72405;BMP280;60395;52.020;113.548;2023-04-25T17:00:31;91488.63;;;2.34
72405;BMP280;60395;52.020;113.548;2023-04-25T17:03:34;91488.00;;;2.33
72405;BMP280;60395;52.020;113.548;2023-04-25T17:06:38;91486.03;;;2.34
72405;BMP280;60395;52.020;113.548;2023-04-25T17:09:41;91486.06;;;2.36
72405;BMP280;60395;52.020;113.548;2023-04-25T17:12:44;91482.81;;;2.29
72405;BMP280;60395;52.020;113.548;2023-04-25T17:15:49;91486.09;;;2.22
72405;BMP280;60395;52.020;113.548;2023-04-25T17:18:52;91476.41;;;2.20
72405;BMP280;60395;52.020;113.548;2023-04-25T17:21:56;91485.44;;;2.21
72405;BMP280;60395;52.020;113.548;2023-04-25T17:24:59;91487.38;;;2.23
72405;BMP280;60395;52.020;113.548;2023-04-25T17:28:03;91486.72;;;2.22
72405;BMP280;60395;52.020;113.548;2023-04-25T17:31:07;91486.75;;;2.24
72405;BMP280;60395;52.020;113.548;2023-04-25T17:34:12;91490.63;;;2.21
72405;BMP280;60395;52.020;113.548;2023-04-25T17:37:19;91488.03;;;2.15
72405;BMP280;60395;52.020;113.548;2023-04-25T17:40:22;91486.75;;;2.10
72405;BMP280;60395;52.020;113.548;2023-04-25T17:43:26;91482.22;;;2.06
72405;BMP280;60395;52.020;113.548;2023-04-25T17:46:29;91479.00;;;2.00